Sunday, April 22, 2018, 9:39 PM EDT
Back to Local

KILG, Wilmington New Castle Co

Location: New Castle, DE, United States Lat: 39.667
Local Time: 9:39 PM EDT ( 1:39 GMT) Lon: -75.6
Time Zone: US/Eastern Elev: 78 ft

Show me the last for .
Show Decoded

2018-04-22 20:51 METAR KILG 230051Z AUTO 16006KT 10SM CLR 11/06 A3037 RMK AO2 SLP285 T01060061 =
2018-04-22 19:51 METAR KILG 222351Z 15008KT 10SM CLR 12/04 A3036 RMK AO2 SLP279 T01170039 10178
                 20117 53002 =
2018-04-22 18:51 METAR KILG 222251Z 16011KT 10SM CLR 15/02 A3035 RMK AO2 SLP276 T01500022 =
2018-04-22 17:51 METAR KILG 222151Z 17009KT 10SM CLR 17/M02 A3034 RMK AO2 SLP275 T01721017 =
2018-04-22 16:51 METAR KILG 222051Z 16008KT 10SM CLR 18/M02 A3035 RMK AO2 SLP277 T01781017 56019
                 =
2018-04-22 15:51 METAR KILG 221951Z 14008KT 10SM CLR 17/M02 A3036 RMK AO2 SLP282 T01721022 =
2018-04-22 14:51 METAR KILG 221851Z 15007KT 10SM CLR 17/M03 A3038 RMK AO2 SLP288 T01721033 =
2018-04-22 13:51 METAR KILG 221751Z 16008KT 120V190 10SM CLR 17/M03 A3041 RMK AO2 SLP296
                 T01721028 10172 20089 58012 =
2018-04-22 12:51 METAR KILG 221651Z 20006KT 10SM CLR 16/M04 A3041 RMK AO2 SLP299 T01611044 =
2018-04-22 11:51 METAR KILG 221551Z 00000KT 10SM CLR 15/M07 A3043 RMK AO2 SLP305 T01501067 =
2018-04-22 10:51 METAR KILG 221451Z 09006KT 10SM CLR 14/M07 A3044 RMK AO2 SLP308 T01441067 51001
                 =
2018-04-22 09:51 METAR KILG 221351Z 07009KT 10SM CLR 13/M05 A3044 RMK AO2 SLP308 T01331050 =
2018-04-22 08:51 METAR KILG 221251Z 07008KT 10SM CLR 12/M06 A3044 RMK AO2 SLP309 T01221056 =
2018-04-22 07:51 METAR KILG 221151Z 36003KT 10SM CLR 09/01 A3044 RMK AO2 SLP307 T00890006 10089
                 20033 51012 =
2018-04-22 06:51 METAR KILG 221051Z 35003KT 10SM CLR 05/01 A3043 RMK AO2 SLP305 T00500011 =
2018-04-22 05:51 METAR KILG 220951Z AUTO 33003KT 10SM CLR 05/02 A3042 RMK AO2 SLP302 T00500017 =
2018-04-22 04:51 METAR KILG 220851Z AUTO 00000KT 10SM CLR 06/00 A3040 RMK AO2 SLP295 T00560000
                 53002 =
2018-04-22 03:51 METAR KILG 220751Z AUTO 00000KT 10SM CLR 07/00 A3040 RMK AO2 SLP293 T00720000 =
2018-04-22 02:51 METAR KILG 220651Z AUTO 31004KT 10SM CLR 06/00 A3039 RMK AO2 SLP291 T00610000 =
2018-04-22 01:51 METAR KILG 220551Z AUTO 32003KT 10SM CLR 08/M01 A3040 RMK AO2 SLP293 T00781006
                 10128 20061 53010 =
2018-04-22 00:51 METAR KILG 220451Z AUTO 30005KT 10SM CLR 08/01 A3038 RMK AO2 SLP288 T00780006
                 401610000 =
2018-04-21 23:51 METAR KILG 220351Z AUTO 26009KT 10SM CLR 09/01 A3037 RMK AO2 SLP284 T00940006 =
2018-04-21 22:51 METAR KILG 220251Z 25006KT 10SM CLR 09/M01 A3037 RMK AO2 SLP283 T00941006 51006
                 =
2018-04-21 21:51 METAR KILG 220151Z 25006KT 10SM CLR 10/M02 A3036 RMK AO2 SLP282 T01001017 =

Support USWX by starting your Amazon purchase here.